London, United Kingdom

2:14 AM BST on 四月 30, 2017 (GMT +0100)
Heathrow

天気 に付いての歴史 EGLL - 三月, 2017

Change the Weather History Date:

火曜日, 三月 21, 2017

  Actual Average Record
Temperature  
平均温度 46 °F -  
最高温度 54 °F 54 °F 60 °F (2005)
最低温度 39 °F 40 °F 32 °F (2007)
Degree Days  
暖房度日 18    
Moisture  
露点温度 34 °F    
Average Humidity 64    
Maximum Humidity 87    
Minimum Humidity 30    
降水確率  
降水確率 0.00 インチ - - ()
海面圧  
海面圧 29.79 インチ    
 
風速 12 Mph ()    
最大風速 21 Mph    
Max Gust Speed 26 Mph    
視程 8.2 マイル    
イベント    
Averages and records for this station are not official NWS values.
T = Trace of Precipitation, MM = Missing Value Source: Averaged Metar Reports

Daily Weather History Graph

Daily Weather History Graph

Search for Another Location

Airport or City:

Trip Planner

Search our weather history database for the weather conditions in past years. The results will help you decide how hot, cold, wet, or windy it might be!

Date:

天文

Mar. 21, 2017 入り
実時間 6:01 AM GMT 6:16 PM GMT
常用薄明 5:28 AM GMT 6:50 PM GMT
航海薄明 4:49 AM GMT 7:29 PM GMT
天文薄明 4:08 AM GMT 8:11 PM GMT
2:11 AM GMT (3/21) 11:03 AM GMT (3/21)
可視光の長さ 13h 21m
可照時間
12h 14m
第 4 四半期, 42% of the Moon is Illuminated
3月 21
第 4 四半期
3月 28
新しい
4月 3
上弦
4月 11
満月
4月 19
第 4 四半期

Hourly Weather History & Observations

時間 (GMT) 温度 体感気温(寒さ) 露点温度 湿度 気圧 視程 Wind Dir 風速 突風の速度 Precip イベント 現在の気象状況
12:00 AM 44 °F - 40 °F 82% 29.71 インチ 22 マイル 南西 10.4 Mph - -  
12:20 AM 44.6 °F 39.2 °F 41.0 °F 87% 29.71 インチ 6.2 マイル 西南西 10.4 Mph - N/A   情報なし
12:50 AM 44.6 °F 39.2 °F 41.0 °F 87% 29.71 インチ 6.2 マイル 西南西 10.4 Mph - N/A   情報なし
1:00 AM 44 °F - 40 °F 79% 29.71 インチ 25 マイル 西南西 11.5 Mph - -   所により曇
1:20 AM 44.6 °F 39.2 °F 41.0 °F 87% 29.71 インチ 6.2 マイル 西南西 10.4 Mph - N/A   情報なし
1:50 AM 44.6 °F 37.8 °F 39.2 °F 81% 29.71 インチ 6.2 マイル 西南西 15.0 Mph - N/A   情報なし
2:00 AM 44 °F - 39 °F 75% 29.72 インチ 25 マイル 西南西 15.0 Mph - -   だいたい曇
2:20 AM 44.6 °F 37.8 °F 39.2 °F 81% 29.71 インチ 6.2 マイル 西南西 15.0 Mph - N/A   情報なし
2:50 AM 44.6 °F 37.8 °F 37.4 °F 76% 29.74 インチ 6.2 マイル 西 15.0 Mph - N/A   情報なし
3:00 AM 43 °F - 37 °F 72% 29.73 インチ 22 マイル 西 15.0 Mph - -   だいたい曇
3:20 AM 42.8 °F 35.8 °F 37.4 °F 81% 29.74 インチ 6.2 マイル 西 13.8 Mph - N/A   情報なし
3:50 AM 42.8 °F 35.4 °F 35.6 °F 76% 29.74 インチ 6.2 マイル 西 15.0 Mph - N/A   情報なし
4:00 AM 41 °F - 36 °F 74% 29.75 インチ 16 マイル 西 15.0 Mph - -  
4:20 AM 42.8 °F 35.8 °F 35.6 °F 76% 29.74 インチ 6.2 マイル 西 13.8 Mph - N/A   情報なし
4:50 AM 41.0 °F 34.3 °F 35.6 °F 81% 29.77 インチ 6.2 マイル 西 11.5 Mph - N/A   情報なし
5:00 AM 40 °F - 35 °F 78% 29.76 インチ 15 マイル 西 11.5 Mph - -  
5:20 AM 41.0 °F 34.3 °F 35.6 °F 81% 29.77 インチ 6.2 マイル 西 11.5 Mph - N/A   情報なし
5:50 AM 41.0 °F 33.9 °F 35.6 °F 81% 29.77 インチ 6.2 マイル 西 12.7 Mph - N/A   情報なし
6:00 AM 39 °F - 34 °F 77% 29.79 インチ 14 マイル 西 11.5 Mph - -  
6:20 AM 39.2 °F 31.6 °F 33.8 °F 81% 29.80 インチ 6.2 マイル 西 12.7 Mph - N/A   情報なし
6:50 AM 41.0 °F 33.5 °F 33.8 °F 76% 29.80 インチ 6.2 マイル 西南西 13.8 Mph - N/A   情報なし
7:00 AM 40 °F - 33 °F 68% 29.81 インチ 19 マイル 西南西 13.8 Mph - -  
7:20 AM 41.0 °F 33.9 °F 33.8 °F 76% 29.80 インチ 6.2 マイル 西南西 12.7 Mph - N/A   情報なし
7:50 AM 42.8 °F 35.8 °F 32.0 °F 66% 29.80 インチ 6.2 マイル 西南西 13.8 Mph - N/A   情報なし
8:00 AM 42 °F - 33 °F 60% 29.82 インチ 17 マイル 西南西 13.8 Mph - -  
8:20 AM 42.8 °F 35.4 °F 32.0 °F 66% 29.83 インチ 6.2 マイル 西 15.0 Mph - N/A   情報なし
8:50 AM 44.6 °F 37.4 °F 33.8 °F 66% 29.83 インチ 6.2 マイル 西南西 16.1 Mph - N/A   情報なし
9:00 AM 45 °F - 34 °F 54% 29.83 インチ 19 マイル 西南西 16.1 Mph - -  
9:20 AM 46.4 °F 39.5 °F 33.8 °F 62% 29.83 インチ 6.2 マイル 西南西 17.3 Mph - N/A   情報なし
9:50 AM 46.4 °F 39.8 °F 32.0 °F 57% 29.83 インチ 6.2 マイル 西 16.1 Mph - N/A   情報なし
10:00 AM 47 °F - 31 °F 41% 29.84 インチ 16 マイル 西 16.1 Mph - -  
10:20 AM 48.2 °F - 33.8 °F 58% 29.83 インチ 6.2 マイル 西 17.3 Mph - N/A   やや曇
10:50 AM 48.2 °F - 32.0 °F 54% 29.83 インチ 6.2 マイル 西南西 18.4 Mph - N/A   やや曇
11:00 AM 50 °F - 34 °F 41% 29.84 インチ 22 マイル 西南西 17.3 Mph - -   所により曇
11:20 AM 50.0 °F - 32.0 °F 50% 29.83 インチ 6.2 マイル 西南西 17.3 Mph - N/A   やや曇
11:50 AM 50.0 °F - 30.2 °F 47% 29.83 インチ 6.2 マイル 西 18.4 Mph - N/A   やや曇
12:00 PM 52 °F - 30 °F 30% 29.84 インチ 22 マイル 西 18.4 Mph - -   だいたい曇
12:20 PM 51.8 °F - 30.2 °F 44% 29.83 インチ 6.2 マイル 西 17.3 Mph - N/A   だいたい曇
12:50 PM 51.8 °F - 30.2 °F 44% 29.83 インチ 6.2 マイル 西南西 20.7 Mph - N/A   だいたい曇
1:20 PM 50.0 °F - 30.2 °F 47% 29.83 インチ 6.2 マイル 西南西 18.4 Mph - N/A   情報なし
1:50 PM 51.8 °F - 28.4 °F 41% 29.83 インチ 6.2 マイル 西南西 15.0 Mph 26.5 Mph N/A   情報なし
2:00 PM 50 °F - 30 °F 33% 29.83 インチ 22 マイル 西南西 17.3 Mph - -   所により曇
2:20 PM 53.6 °F - 26.6 °F 35% 29.83 インチ 6.2 マイル 西南西 20.7 Mph - N/A   情報なし
2:50 PM 51.8 °F - 28.4 °F 41% 29.80 インチ 6.2 マイル 西南西 15.0 Mph - N/A   情報なし
3:00 PM 51 °F - 29 °F 30% 29.82 インチ 18 マイル 西南西 15.0 Mph - -   だいたい曇
3:20 PM 51.8 °F - 30.2 °F 44% 29.80 インチ 6.2 マイル 西南西 16.1 Mph - N/A   情報なし
3:50 PM 51.8 °F - 28.4 °F 41% 29.80 インチ 6.2 マイル 西南西 15.0 Mph - N/A   情報なし
4:00 PM 51 °F - 30 °F 32% 29.82 インチ 25 マイル 西南西 15.0 Mph - -   だいたい曇
4:20 PM 48.2 °F - 35.6 °F 62% 29.80 インチ 6.2 マイル 西 18.4 Mph - N/A   所により曇
4:50 PM 48.2 °F - 35.6 °F 62% 29.80 インチ 6.2 マイル 西 12.7 Mph - N/A   だいたい曇
5:20 PM 50.0 °F - 33.8 °F 54% 29.80 インチ 6.2 マイル 西南西 12.7 Mph - N/A   所により曇
5:50 PM 50.0 °F - 33.8 °F 54% 29.80 インチ 6.2 マイル 西南西 13.8 Mph - N/A   だいたい曇
6:00 PM 49 °F - 34 °F 43% 29.82 インチ 25 マイル 西南西 11.5 Mph - -   やや曇
6:20 PM 48.2 °F - 33.8 °F 58% 29.83 インチ 6.2 マイル 南南西 12.7 Mph - N/A   やや曇
6:50 PM 46.4 °F 40.4 °F 33.8 °F 62% 29.83 インチ 6.2 マイル 南南西 13.8 Mph - N/A   やや曇
7:00 PM 47 °F - 33 °F 47% 29.83 インチ 19 マイル 南南西 15.0 Mph - -   だいたい曇
7:20 PM 46.4 °F 40.4 °F 35.6 °F 66% 29.83 インチ 6.2 マイル 南南西 13.8 Mph - N/A   情報なし
7:50 PM 44.6 °F 38.4 °F 37.4 °F 76% 29.83 インチ 6.2 マイル 南西 12.7 Mph - N/A   所により曇
8:00 PM 44 °F - 36 °F 65% 29.83 インチ 25 マイル 南南西 12.7 Mph - -
8:20 PM 42.8 °F 37.5 °F 37.4 °F 81% 29.83 インチ 6.2 マイル 南南西 9.2 Mph - N/A   情報なし
8:50 PM 42.8 °F 37.0 °F 37.4 °F 81% 29.80 インチ 6.2 マイル 10.4 Mph - N/A 小雨
9:00 PM 43 °F - 37 °F 73% 29.82 インチ 19 マイル 8.1 Mph - - にわか雨(弱)
9:20 PM 41.0 °F 36.4 °F 37.4 °F 87% 29.80 インチ 6.2 マイル 6.9 Mph - N/A   情報なし
9:50 PM 42.8 °F 37.5 °F 37.4 °F 81% 29.80 インチ 6.2 マイル 南南東 9.2 Mph - N/A   情報なし
10:00 PM 42 °F - 37 °F 75% 29.81 インチ 11 マイル 南南東 9.2 Mph - -
10:20 PM 42.8 °F 37.5 °F 37.4 °F 81% 29.80 インチ 6.2 マイル 9.2 Mph - N/A   情報なし
10:50 PM 42.8 °F 37.5 °F 37.4 °F 81% 29.80 インチ 6.2 マイル 9.2 Mph - N/A   情報なし
11:00 PM 43 °F - 36 °F 69% 29.79 インチ 12 マイル 10.4 Mph - -   やや曇
11:20 PM 42.8 °F 38.0 °F 37.4 °F 81% 29.77 インチ 6.2 マイル 南南東 8.1 Mph - N/A   情報なし
11:50 PM 42.8 °F 38.0 °F 35.6 °F 76% 29.77 インチ 6.2 マイル 南南東 8.1 Mph - N/A   情報なし